Stourport, United Kingdom
Current Conditions -  °F | °C
As of 12:20 AM on Thursday 27 Nov 2014 (Local Time) from EGBB Reporting Station
Light Rain Light Rain  
Wind Chill: 45°   Ceiling: 100
Heat Index: 45°   Visibility: 0.15mi
Dew Point: 45°   Wind: 0mph
Humidity: 100%   Direction: NA
Pressure: 29.71"   Gusts: NA
Location:  52.33°N, 2.28°W
Report Text: EGBB 270020Z 00000KT 0250 -RADZ FG OVC001 07/07 Q1006
Loading
Personal Weather Stations






























Interactive Weather Map New forecast layout! Learn more

10-Day Weather Forecast

Advertisements
Track Severe Weather on mobile